Time,TemperatureF,DewpointF,PressureIn,WindDirection,WindDirectionDegrees,WindSpeedMPH,WindSpeedGustMPH,Humidity,HourlyPrecipIn,Conditions,Clouds,dailyrainin,SolarRadiationWatts/m^2,SoftwareType,DateUTC
2013-04-04 00:02:00,44.0,12.0,-100.00,NNE,19,5.0,9.0,27,0.00,,,0.01,0.000000,,2013-04-04 04:02:00,
2013-04-04 00:12:00,42.0,13.0,-100.00,NNE,17,4.0,10.0,30,0.00,,,0.01,0.000000,,2013-04-04 04:12:00,
2013-04-04 00:43:00,42.0,13.0,-100.00,NNE,17,4.0,10.0,30,0.00,,,0.01,0.000000,,2013-04-04 04:43:00,
2013-04-04 00:53:00,42.0,13.0,-100.00,NNE,17,4.0,10.0,30,0.00,,,0.01,0.000000,,2013-04-04 04:53:00,
2013-04-04 01:02:00,42.0,13.0,-100.00,NNE,17,4.0,10.0,30,0.00,,,0.01,0.000000,,2013-04-04 05:02:00,
2013-04-04 01:12:00,41.0,13.0,-100.00,North,355,13.0,19.0,32,0.00,,,0.01,0.000000,,2013-04-04 05:12:00,
2013-04-04 01:32:00,41.0,13.0,-100.00,North,355,13.0,19.0,32,0.00,,,0.01,0.000000,,2013-04-04 05:32:00,
2013-04-04 01:42:00,41.0,13.0,-100.00,North,355,13.0,19.0,32,0.00,,,0.01,0.000000,,2013-04-04 05:42:00,
2013-04-04 01:52:00,41.0,13.0,-100.00,North,355,13.0,19.0,32,0.00,,,0.01,0.000000,,2013-04-04 05:52:00,
2013-04-04 02:02:00,41.0,13.0,-100.00,North,355,13.0,19.0,32,0.00,,,0.01,0.000000,,2013-04-04 06:02:00,
2013-04-04 02:12:00,39.0,13.0,-100.00,NNE,18,7.0,19.0,34,0.00,,,0.01,0.000000,,2013-04-04 06:12:00,
2013-04-04 02:33:00,39.0,13.0,-100.00,NNE,18,7.0,19.0,34,0.00,,,0.01,0.000000,,2013-04-04 06:33:00,
2013-04-04 02:42:00,39.0,13.0,-100.00,NNE,18,7.0,19.0,34,0.00,,,0.01,0.000000,,2013-04-04 06:42:00,
2013-04-04 02:52:00,39.0,13.0,-100.00,NNE,18,7.0,19.0,34,0.00,,,0.01,0.000000,,2013-04-04 06:52:00,
2013-04-04 03:02:00,39.0,13.0,-100.00,NNE,18,7.0,19.0,34,0.00,,,0.01,0.000000,,2013-04-04 07:02:00,
2013-04-04 03:43:00,39.0,13.0,-100.00,North,10,6.0,11.0,34,0.00,,,0.01,0.000000,,2013-04-04 07:43:00,
2013-04-04 03:52:00,39.0,13.0,-100.00,North,10,6.0,11.0,34,0.00,,,0.01,0.000000,,2013-04-04 07:52:00,
2013-04-04 04:02:00,39.0,13.0,-100.00,North,10,6.0,11.0,34,0.00,,,0.01,0.000000,,2013-04-04 08:02:00,
2013-04-04 04:11:00,39.0,13.0,-100.00,North,10,6.0,11.0,34,0.00,,,0.01,0.000000,,2013-04-04 08:11:00,
2013-04-04 04:12:00,38.0,13.0,-100.00,North,6,7.0,10.0,35,0.00,,,0.01,0.000000,,2013-04-04 08:12:00,
2013-04-04 04:43:00,38.0,13.0,-100.00,North,6,7.0,10.0,35,0.00,,,0.01,0.000000,,2013-04-04 08:43:00,
2013-04-04 04:52:00,38.0,13.0,-100.00,North,6,7.0,10.0,35,0.00,,,0.01,0.000000,,2013-04-04 08:52:00,
2013-04-04 05:02:00,38.0,13.0,-100.00,North,6,7.0,10.0,35,0.00,,,0.01,0.000000,,2013-04-04 09:02:00,
2013-04-04 05:12:00,38.0,13.0,-100.00,North,6,7.0,12.0,35,0.00,,,0.01,0.000000,,2013-04-04 09:12:00,
2013-04-04 05:34:00,38.0,13.0,-100.00,North,6,7.0,12.0,35,0.00,,,0.01,0.000000,,2013-04-04 09:34:00,
2013-04-04 05:43:00,38.0,13.0,-100.00,North,6,7.0,12.0,35,0.00,,,0.01,0.000000,,2013-04-04 09:43:00,
2013-04-04 05:53:00,38.0,13.0,-100.00,North,6,7.0,12.0,35,0.00,,,0.01,0.000000,,2013-04-04 09:53:00,
2013-04-04 06:03:00,38.0,13.0,-100.00,North,6,7.0,12.0,35,0.00,,,0.01,0.000000,,2013-04-04 10:03:00,
2013-04-04 06:12:00,38.0,13.0,-100.00,North,6,8.0,12.0,35,0.00,,,0.01,0.000000,,2013-04-04 10:12:00,
2013-04-04 06:43:00,38.0,13.0,-100.00,North,6,8.0,12.0,35,0.00,,,0.01,0.000000,,2013-04-04 10:43:00,
2013-04-04 06:53:00,38.0,13.0,-100.00,North,6,8.0,12.0,35,0.00,,,0.01,0.000000,,2013-04-04 10:53:00,
2013-04-04 07:02:00,38.0,13.0,-100.00,North,6,8.0,12.0,35,0.00,,,0.01,0.000000,,2013-04-04 11:02:00,
2013-04-04 07:12:00,37.0,13.0,-100.00,North,354,10.0,15.0,36,0.00,,,0.01,0.000000,,2013-04-04 11:12:00,
2013-04-04 07:33:00,37.0,13.0,-100.00,North,354,10.0,15.0,36,0.00,,,0.01,0.000000,,2013-04-04 11:33:00,
2013-04-04 07:43:00,37.0,13.0,-100.00,North,354,10.0,15.0,36,0.00,,,0.01,0.000000,,2013-04-04 11:43:00,
2013-04-04 07:53:00,37.0,13.0,-100.00,North,354,10.0,15.0,36,0.00,,,0.01,0.000000,,2013-04-04 11:53:00,
2013-04-04 08:02:00,37.0,13.0,-100.00,North,354,10.0,15.0,36,0.00,,,0.01,0.000000,,2013-04-04 12:02:00,
2013-04-04 08:12:00,37.0,13.0,-100.00,North,5,7.0,12.0,36,0.00,,,0.01,0.000000,,2013-04-04 12:12:00,
2013-04-04 08:33:00,37.0,13.0,-100.00,North,5,7.0,12.0,36,0.00,,,0.01,0.000000,,2013-04-04 12:33:00,
2013-04-04 08:43:00,37.0,13.0,-100.00,North,5,7.0,12.0,36,0.00,,,0.01,0.000000,,2013-04-04 12:43:00,
2013-04-04 08:52:00,37.0,13.0,-100.00,North,5,7.0,12.0,36,0.00,,,0.01,0.000000,,2013-04-04 12:52:00,
2013-04-04 09:02:00,37.0,13.0,-100.00,North,5,7.0,12.0,36,0.00,,,0.01,0.000000,,2013-04-04 13:02:00,
2013-04-04 09:12:00,38.0,15.0,-100.00,North,7,5.0,11.0,38,-99.99,,,0.01,4.000000,,2013-04-04 13:12:00,
2013-04-04 09:43:00,38.0,15.0,-100.00,North,7,5.0,11.0,38,-99.99,,,0.01,4.000000,,2013-04-04 13:43:00,
2013-04-04 09:52:00,38.0,15.0,-100.00,North,7,5.0,11.0,38,-99.99,,,0.01,4.000000,,2013-04-04 13:52:00,
2013-04-04 10:02:00,38.0,15.0,-100.00,North,7,5.0,11.0,38,-99.99,,,0.01,4.000000,,2013-04-04 14:02:00,
2013-04-04 10:12:00,41.0,15.0,-100.00,North,359,4.0,9.0,35,-99.99,,,0.01,137.000000,,2013-04-04 14:12:00,
2013-04-04 10:43:00,41.0,15.0,-100.00,North,359,4.0,9.0,35,-99.99,,,0.01,137.000000,,2013-04-04 14:43:00,
2013-04-04 10:52:00,41.0,15.0,-100.00,North,359,4.0,9.0,35,-99.99,,,0.01,137.000000,,2013-04-04 14:52:00,
2013-04-04 11:02:00,41.0,15.0,-100.00,North,359,4.0,9.0,35,-99.99,,,0.01,137.000000,,2013-04-04 15:02:00,
2013-04-04 11:12:00,45.0,17.0,-100.00,North,359,4.0,7.0,32,0.00,,,0.01,329.000000,,2013-04-04 15:12:00,
2013-04-04 11:34:00,45.0,17.0,-100.00,North,359,4.0,7.0,32,0.00,,,0.01,329.000000,,2013-04-04 15:34:00,
2013-04-04 11:43:00,45.0,17.0,-100.00,North,359,4.0,7.0,32,0.00,,,0.01,329.000000,,2013-04-04 15:43:00,
2013-04-04 11:53:00,45.0,17.0,-100.00,North,359,4.0,7.0,32,0.00,,,0.01,329.000000,,2013-04-04 15:53:00,
2013-04-04 12:02:00,45.0,17.0,-100.00,North,359,4.0,7.0,32,0.00,,,0.01,329.000000,,2013-04-04 16:02:00,
2013-04-04 12:12:00,51.0,21.0,-100.00,NNW,337,2.0,7.0,30,0.00,,,0.01,543.000000,,2013-04-04 16:12:00,
2013-04-04 12:43:00,51.0,21.0,-100.00,NNW,337,2.0,7.0,30,0.00,,,0.01,543.000000,,2013-04-04 16:43:00,
2013-04-04 12:53:00,51.0,21.0,-100.00,NNW,337,2.0,7.0,30,0.00,,,0.01,543.000000,,2013-04-04 16:53:00,
2013-04-04 13:02:00,51.0,21.0,-100.00,NNW,337,2.0,7.0,30,0.00,,,0.01,543.000000,,2013-04-04 17:02:00,
2013-04-04 13:12:00,54.0,21.0,-100.00,SSW,194,6.0,10.0,27,0.00,,,0.01,709.000000,,2013-04-04 17:12:00,
2013-04-04 13:43:00,54.0,21.0,-100.00,SSW,194,6.0,10.0,27,0.00,,,0.01,709.000000,,2013-04-04 17:43:00,
2013-04-04 13:52:00,54.0,21.0,-100.00,SSW,194,6.0,10.0,27,0.00,,,0.01,709.000000,,2013-04-04 17:52:00,
2013-04-04 14:02:00,54.0,21.0,-100.00,SSW,194,6.0,10.0,27,0.00,,,0.01,709.000000,,2013-04-04 18:02:00,
2013-04-04 14:12:00,56.0,14.0,-100.00,South,180,8.0,15.0,19,0.00,,,0.01,830.000000,,2013-04-04 18:12:00,
2013-04-04 14:43:00,56.0,14.0,-100.00,South,180,8.0,15.0,19,0.00,,,0.01,830.000000,,2013-04-04 18:43:00,
2013-04-04 14:52:00,56.0,14.0,-100.00,South,180,8.0,15.0,19,0.00,,,0.01,830.000000,,2013-04-04 18:52:00,
2013-04-04 15:02:00,56.0,14.0,-100.00,South,180,8.0,15.0,19,0.00,,,0.01,830.000000,,2013-04-04 19:02:00,
2013-04-04 15:12:00,60.0,14.0,-100.00,SSW,200,6.0,16.0,16,0.00,,,0.01,891.000000,,2013-04-04 19:12:00,
2013-04-04 15:33:00,60.0,14.0,-100.00,SSW,200,6.0,16.0,16,0.00,,,0.01,891.000000,,2013-04-04 19:33:00,
2013-04-04 15:43:00,60.0,14.0,-100.00,SSW,200,6.0,16.0,16,0.00,,,0.01,891.000000,,2013-04-04 19:43:00,
2013-04-04 15:52:00,60.0,14.0,-100.00,SSW,200,6.0,16.0,16,0.00,,,0.01,891.000000,,2013-04-04 19:52:00,
2013-04-04 16:03:00,60.0,14.0,-100.00,SSW,200,6.0,16.0,16,0.00,,,0.01,891.000000,,2013-04-04 20:03:00,
2013-04-04 16:12:00,61.0,14.0,-100.00,South,172,6.0,11.0,16,0.00,,,0.01,891.000000,,2013-04-04 20:12:00,
2013-04-04 16:42:00,61.0,14.0,-100.00,South,172,6.0,11.0,16,0.00,,,0.01,891.000000,,2013-04-04 20:42:00,
2013-04-04 16:53:00,61.0,14.0,-100.00,South,172,6.0,11.0,16,0.00,,,0.01,891.000000,,2013-04-04 20:53:00,
2013-04-04 17:02:00,61.0,14.0,-100.00,South,172,6.0,11.0,16,0.00,,,0.01,891.000000,,2013-04-04 21:02:00,
2013-04-04 17:12:00,63.0,13.0,-100.00,SSW,206,5.0,16.0,14,0.00,,,0.01,811.000000,,2013-04-04 21:12:00,
2013-04-04 17:43:00,63.0,13.0,-100.00,SSW,206,5.0,16.0,14,0.00,,,0.01,811.000000,,2013-04-04 21:43:00,
2013-04-04 17:53:00,63.0,13.0,-100.00,SSW,206,5.0,16.0,14,0.00,,,0.01,811.000000,,2013-04-04 21:53:00,
2013-04-04 18:03:00,63.0,13.0,-100.00,SSW,206,5.0,16.0,14,0.00,,,0.01,811.000000,,2013-04-04 22:03:00,
2013-04-04 18:12:00,61.0,13.0,-100.00,SSW,213,8.0,19.0,15,0.00,,,0.01,704.000000,,2013-04-04 22:12:00,
2013-04-04 18:33:00,61.0,13.0,-100.00,SSW,213,8.0,19.0,15,0.00,,,0.01,704.000000,,2013-04-04 22:33:00,
2013-04-04 18:43:00,61.0,13.0,-100.00,SSW,213,8.0,19.0,15,0.00,,,0.01,704.000000,,2013-04-04 22:43:00,
2013-04-04 18:53:00,61.0,13.0,-100.00,SSW,213,8.0,19.0,15,0.00,,,0.01,704.000000,,2013-04-04 22:53:00,
2013-04-04 19:02:00,61.0,13.0,-100.00,SSW,213,8.0,19.0,15,0.00,,,0.01,704.000000,,2013-04-04 23:02:00,
2013-04-04 19:12:00,59.0,13.0,-100.00,SW,220,7.0,15.0,16,0.00,,,0.01,475.000000,,2013-04-04 23:12:00,
2013-04-04 19:32:00,59.0,13.0,-100.00,SW,220,7.0,15.0,16,0.00,,,0.01,475.000000,,2013-04-04 23:32:00,
2013-04-04 19:42:00,59.0,13.0,-100.00,SW,220,7.0,15.0,16,0.00,,,0.01,475.000000,,2013-04-04 23:42:00,
2013-04-04 19:52:00,59.0,13.0,-100.00,SW,220,7.0,15.0,16,0.00,,,0.01,475.000000,,2013-04-04 23:52:00,
2013-04-04 20:02:00,59.0,13.0,-100.00,SW,220,7.0,15.0,16,0.00,,,0.01,475.000000,,2013-04-05 00:02:00,
2013-04-04 21:12:00,50.0,9.0,-100.00,SSW,212,8.0,12.0,19,-99.99,,,0.00,64.000000,,2013-04-05 01:12:00,
2013-04-04 21:32:00,50.0,9.0,-100.00,SSW,212,8.0,12.0,19,-99.99,,,0.00,64.000000,,2013-04-05 01:32:00,
2013-04-04 21:42:00,50.0,9.0,-100.00,SSW,212,8.0,12.0,19,-99.99,,,0.00,64.000000,,2013-04-05 01:42:00,
2013-04-04 21:53:00,50.0,9.0,-100.00,SSW,212,8.0,12.0,19,-99.99,,,0.00,64.000000,,2013-04-05 01:53:00,
2013-04-04 22:02:00,50.0,9.0,-100.00,SSW,212,8.0,12.0,19,-99.99,,,0.00,64.000000,,2013-04-05 02:02:00,
2013-04-04 22:12:00,49.0,6.0,-100.00,SW,228,7.0,11.0,17,0.00,,,0.00,2.000000,,2013-04-05 02:12:00,
2013-04-04 22:42:00,49.0,6.0,-100.00,SW,228,7.0,11.0,17,0.00,,,0.00,2.000000,,2013-04-05 02:42:00,
2013-04-04 22:52:00,49.0,6.0,-100.00,SW,228,7.0,11.0,17,0.00,,,0.00,2.000000,,2013-04-05 02:52:00,
2013-04-04 23:02:00,49.0,6.0,-100.00,SW,228,7.0,11.0,17,0.00,,,0.00,2.000000,,2013-04-05 03:02:00,
2013-04-04 23:12:00,49.0,6.0,-100.00,WSW,250,9.0,14.0,17,0.00,,,0.00,0.000000,,2013-04-05 03:12:00,
2013-04-04 23:33:00,49.0,6.0,-100.00,WSW,250,9.0,14.0,17,0.00,,,0.00,0.000000,,2013-04-05 03:33:00,
2013-04-04 23:43:00,49.0,6.0,-100.00,WSW,250,9.0,14.0,17,0.00,,,0.00,0.000000,,2013-04-05 03:43:00,
2013-04-04 23:53:00,49.0,6.0,-100.00,WSW,250,9.0,14.0,17,0.00,,,0.00,0.000000,,2013-04-05 03:53:00,